Terminal Aerodrome Forecast
Issued by NWS Omaha/Valley, NE

Home | Current Version | Previous Version | Text Only | Print | Product List | Glossary On
Versions: 1 2 3 4 5 6 7 8 9 10 11 12 13 14 15 16 17
000
FTUS43 KOAX 291603 AAD
TAFLNK
TAF AMD
KLNK 291603Z 2916/3012 36004KT P6SM SCT050
      TEMPO 2916/2917 BKN010
     FM291700 02008KT P6SM SCT050
     FM300400 03004KT P6SM SCT200=

USA.gov is the U.S. government's official web portal to all federal, state and local government web resources and services.